Ana Sayfa
METAR-TAF:

METAR-TAF

Havaalanları :

El Paso, Teksas, Amerika Birleşik Devletleri

Enlem: 31-48-40N, Boylam: 106-22-33W, yükseklik: 1206 m

Güncel hava durumu gözlemi

Rapor saat 10:51 UTC de 1 saat ve 13 dakika önce yapıldı.
Rüzgar güneybatıdan 8 kt
Sıcaklık 27°C
Nem 9%
Basınç 1010 hPa
Görüş mesafesi: 16.1 km
Açık gökyüzü

METAR: KELP 161051Z 23008KT 10SM CLR 27/M09 A2983 RMK AO2 SLP014 T02721089

Saat: 07:04 (12:04 UTC)

Tahmin

Rapor saat 11:26 UTC de 38 dakika önce yapıldı.
Ayın 16'si saat 12 UTC'den ayın 17'si saat 12 UTC'ye kadar geçerli Tahmin
Rüzgar güneybatıdan 8 kt
Görüş mesafesi: 10 km
Açık gökyüzü
Ayın 16'si saat 1800 UTC'den
Rüzgar batı/güneybatıdan 10 kt ve 18 kt'a kadar ani rüzgarlar
Görüş mesafesi: 10 km
Açık gökyüzü
Ayın 17'si saat 0300 UTC'den
Rüzgar batı/güneybatıdan 8 kt
Görüş mesafesi: 10 km
Açık gökyüzü

TAF: KELP 161126Z 1612/1712 23008KT P6SM SKC FM161800 24010G18KT P6SM SKC FM170300 25008KT P6SM SKC

4.000'den fazla havaalanı için hava durumu gözlemleri ve tahminleri (METAR ve TAF raporları).

Kullanılabilir istasyonlar harita üzerinde sarı ve kırmızı noktalarla gösterilir.

İstasyonun adını görmek için fareyi noktanın üzerinde gezdirin.

Sonrasında hava gözlem ve tahminlerini görmek için tıklayın.

Haritayı değiştirmek için: yaklaştırmak için siyah artı işaretli yeşil düğmeye ve uzaklaştırmak için de eksi işaretli düğmeye hızla tıklayın; bitişik haritalar için yeşil okları kullanın.


METAR-TAF: